Grantsdale, Montana
Current Conditions -  °F | °C
As of 1:53 AM on Monday 24 Nov 2014 (Local Time) from KMSO Reporting Station
Overcast Overcast  
Wind Chill: -2°   Ceiling: 6000
Heat Index:   Visibility: 10mi
Dew Point: -2°   Wind: 6mph
Humidity: 85%   Direction: 230°SW
Pressure: 30.1"   Gusts: NA
Location:  46.2°N, 114.13°W
Report Text: KMSO 240853Z AUTO 23005KT 10SM BKN060 OVC070 01/M02 A3010 RMK AO2 SLP217 T00061017 53026
Loading
Personal Weather Stations






























Interactive Weather Map New forecast layout! Learn more

10-Day Weather Forecast

Advertisements
Track Severe Weather on mobile